Terminal Aerodrome Forecast
Issued by NWS

Home | Current Version | Previous Version | Text Only | Print | Product List | Glossary On
Versions: 1 2 3 4 5 6 7 8 9 10 11 12 13
000
FTUS46 KOTX 170539
TAFPUW
TAF
KPUW 170539Z 1706/1806 00000KT P6SM SKC
     FM171500 12010KT P6SM SCT150 SCT200 WS020/24030KT
     FM171900 21018G30KT P6SM BKN150
     FM172100 22026G45KT 6SM HZ BKN120
     FM180100 27016G25KT 6SM HZ SCT120
     FM180400 26006KT P6SM SKC=

USA.gov is the U.S. government's official web portal to all federal, state and local government web resources and services.